<?xml version="1.0" encoding="utf-8"?>
<gpx xmlns:xsi="http://www.w3.org/2001/XMLSchema-instance" xmlns:xsd="http://www.w3.org/2001/XMLSchema" version="1.1" creator="Shapelink.com" xmlns="http://www.topografix.com/GPX/1/1" xmlns:gpxtpx="http://www.garmin.com/xmlschemas/TrackPointExtension/v1">
  <metadata>
    <name>Sykling 4.28 km, 2012-04-16</name>
    <desc></desc>
    <author><name>Mikael Blom</name></author> 
    <time>2012-04-16T17:09:47Z</time>
  </metadata>
  <trk>
    <name>Sykling 4.28 km, 2012-04-16</name>
    <trkseg>
      <trkpt lat="59.9789015" lon="17.7391146">
        <ele>51.5679</ele>
        <time>2012-04-16T17:09:47Z</time>
      </trkpt>
      <trkpt lat="59.9787505" lon="17.739141">
        <ele>46.7612</ele>
        <time>2012-04-16T17:09:51Z</time>
      </trkpt>
      <trkpt lat="59.9785008" lon="17.7391689">
        <ele>41.474</ele>
        <time>2012-04-16T17:09:57Z</time>
      </trkpt>
      <trkpt lat="59.9784083" lon="17.7391428">
        <ele>41.9547</ele>
        <time>2012-04-16T17:09:59Z</time>
      </trkpt>
      <trkpt lat="59.9780819" lon="17.7390508">
        <ele>42.4354</ele>
        <time>2012-04-16T17:10:06Z</time>
      </trkpt>
      <trkpt lat="59.9777942" lon="17.7389245">
        <ele>40.5128</ele>
        <time>2012-04-16T17:10:13Z</time>
      </trkpt>
      <trkpt lat="59.977639" lon="17.7388908">
        <ele>39.0707</ele>
        <time>2012-04-16T17:10:16Z</time>
      </trkpt>
      <trkpt lat="59.9773184" lon="17.7389745">
        <ele>36.6675</ele>
        <time>2012-04-16T17:10:21Z</time>
      </trkpt>
      <trkpt lat="59.9768117" lon="17.7392341">
        <ele>35.2255</ele>
        <time>2012-04-16T17:10:28Z</time>
      </trkpt>
      <trkpt lat="59.9766668" lon="17.7392997">
        <ele>34.7449</ele>
        <time>2012-04-16T17:10:30Z</time>
      </trkpt>
      <trkpt lat="59.9763294" lon="17.7396377">
        <ele>33.7834</ele>
        <time>2012-04-16T17:10:35Z</time>
      </trkpt>
      <trkpt lat="59.9761132" lon="17.7395867">
        <ele>32.3416</ele>
        <time>2012-04-16T17:10:38Z</time>
      </trkpt>
      <trkpt lat="59.9759923" lon="17.739401">
        <ele>30.8995</ele>
        <time>2012-04-16T17:10:40Z</time>
      </trkpt>
      <trkpt lat="59.9754426" lon="17.7383991">
        <ele>28.4962</ele>
        <time>2012-04-16T17:10:49Z</time>
      </trkpt>
      <trkpt lat="59.974955" lon="17.737523">
        <ele>28.0155</ele>
        <time>2012-04-16T17:10:58Z</time>
      </trkpt>
      <trkpt lat="59.9746164" lon="17.7367067">
        <ele>27.5349</ele>
        <time>2012-04-16T17:11:06Z</time>
      </trkpt>
      <trkpt lat="59.9744367" lon="17.7359827">
        <ele>27.0543</ele>
        <time>2012-04-16T17:11:12Z</time>
      </trkpt>
      <trkpt lat="59.9743191" lon="17.7351795">
        <ele>26.5736</ele>
        <time>2012-04-16T17:11:18Z</time>
      </trkpt>
      <trkpt lat="59.9742847" lon="17.734255">
        <ele>26.0929</ele>
        <time>2012-04-16T17:11:25Z</time>
      </trkpt>
      <trkpt lat="59.9743437" lon="17.7330854">
        <ele>26.5736</ele>
        <time>2012-04-16T17:11:34Z</time>
      </trkpt>
      <trkpt lat="59.9743471" lon="17.7322121">
        <ele>27.0543</ele>
        <time>2012-04-16T17:11:41Z</time>
      </trkpt>
      <trkpt lat="59.9743548" lon="17.7310341">
        <ele>27.5349</ele>
        <time>2012-04-16T17:11:50Z</time>
      </trkpt>
      <trkpt lat="59.9744315" lon="17.7300446">
        <ele>27.5349</ele>
        <time>2012-04-16T17:11:58Z</time>
      </trkpt>
      <trkpt lat="59.9744748" lon="17.729146">
        <ele>27.5349</ele>
        <time>2012-04-16T17:12:06Z</time>
      </trkpt>
      <trkpt lat="59.9744421" lon="17.7281637">
        <ele>27.5349</ele>
        <time>2012-04-16T17:12:14Z</time>
      </trkpt>
      <trkpt lat="59.9744251" lon="17.7271778">
        <ele>28.4962</ele>
        <time>2012-04-16T17:12:23Z</time>
      </trkpt>
      <trkpt lat="59.9744017" lon="17.7263077">
        <ele>29.9381</ele>
        <time>2012-04-16T17:12:32Z</time>
      </trkpt>
      <trkpt lat="59.974362" lon="17.7255983">
        <ele>29.4575</ele>
        <time>2012-04-16T17:12:39Z</time>
      </trkpt>
      <trkpt lat="59.9742565" lon="17.7247313">
        <ele>28.9769</ele>
        <time>2012-04-16T17:12:47Z</time>
      </trkpt>
      <trkpt lat="59.9740765" lon="17.7235327">
        <ele>28.0155</ele>
        <time>2012-04-16T17:12:57Z</time>
      </trkpt>
      <trkpt lat="59.973898" lon="17.7226588">
        <ele>28.0155</ele>
        <time>2012-04-16T17:13:05Z</time>
      </trkpt>
      <trkpt lat="59.9738436" lon="17.7224558">
        <ele>27.5349</ele>
        <time>2012-04-16T17:13:07Z</time>
      </trkpt>
      <trkpt lat="59.9737006" lon="17.722027">
        <ele>27.5349</ele>
        <time>2012-04-16T17:13:12Z</time>
      </trkpt>
      <trkpt lat="59.9734099" lon="17.7213456">
        <ele>27.0543</ele>
        <time>2012-04-16T17:13:22Z</time>
      </trkpt>
      <trkpt lat="59.9731156" lon="17.7208235">
        <ele>27.5349</ele>
        <time>2012-04-16T17:13:30Z</time>
      </trkpt>
      <trkpt lat="59.9727925" lon="17.7204143">
        <ele>27.5349</ele>
        <time>2012-04-16T17:13:37Z</time>
      </trkpt>
      <trkpt lat="59.9724521" lon="17.7200844">
        <ele>28.0155</ele>
        <time>2012-04-16T17:13:44Z</time>
      </trkpt>
      <trkpt lat="59.972109" lon="17.7197725">
        <ele>28.0155</ele>
        <time>2012-04-16T17:13:51Z</time>
      </trkpt>
      <trkpt lat="59.9717367" lon="17.7194351">
        <ele>28.9769</ele>
        <time>2012-04-16T17:13:59Z</time>
      </trkpt>
      <trkpt lat="59.9713161" lon="17.7190627">
        <ele>29.4575</ele>
        <time>2012-04-16T17:14:08Z</time>
      </trkpt>
      <trkpt lat="59.971079" lon="17.7188394">
        <ele>29.4575</ele>
        <time>2012-04-16T17:14:14Z</time>
      </trkpt>
      <trkpt lat="59.9707764" lon="17.7185634">
        <ele>29.9381</ele>
        <time>2012-04-16T17:14:21Z</time>
      </trkpt>
      <trkpt lat="59.97032" lon="17.7181447">
        <ele>30.4188</ele>
        <time>2012-04-16T17:14:30Z</time>
      </trkpt>
      <trkpt lat="59.9698813" lon="17.7177559">
        <ele>30.8995</ele>
        <time>2012-04-16T17:14:38Z</time>
      </trkpt>
      <trkpt lat="59.9694617" lon="17.7174553">
        <ele>31.8607</ele>
        <time>2012-04-16T17:14:46Z</time>
      </trkpt>
      <trkpt lat="59.9689561" lon="17.7172328">
        <ele>32.8223</ele>
        <time>2012-04-16T17:14:56Z</time>
      </trkpt>
      <trkpt lat="59.968476" lon="17.7170286">
        <ele>31.8607</ele>
        <time>2012-04-16T17:15:05Z</time>
      </trkpt>
      <trkpt lat="59.9684201" lon="17.7169952">
        <ele>31.8607</ele>
        <time>2012-04-16T17:15:06Z</time>
      </trkpt>
      <trkpt lat="59.9680091" lon="17.7165474">
        <ele>28.9769</ele>
        <time>2012-04-16T17:15:13Z</time>
      </trkpt>
      <trkpt lat="59.9678314" lon="17.7162103">
        <ele>27.0543</ele>
        <time>2012-04-16T17:15:16Z</time>
      </trkpt>
      <trkpt lat="59.9675661" lon="17.7152579">
        <ele>24.1703</ele>
        <time>2012-04-16T17:15:22Z</time>
      </trkpt>
      <trkpt lat="59.9674601" lon="17.7144778">
        <ele>24.651</ele>
        <time>2012-04-16T17:15:27Z</time>
      </trkpt>
      <trkpt lat="59.9673793" lon="17.713916">
        <ele>26.0929</ele>
        <time>2012-04-16T17:15:32Z</time>
      </trkpt>
      <trkpt lat="59.9672506" lon="17.7131307">
        <ele>28.4962</ele>
        <time>2012-04-16T17:15:41Z</time>
      </trkpt>
      <trkpt lat="59.9671011" lon="17.7125675">
        <ele>29.4575</ele>
        <time>2012-04-16T17:15:48Z</time>
      </trkpt>
      <trkpt lat="59.9668714" lon="17.7119486">
        <ele>29.9381</ele>
        <time>2012-04-16T17:15:56Z</time>
      </trkpt>
      <trkpt lat="59.9666204" lon="17.7112177">
        <ele>29.9381</ele>
        <time>2012-04-16T17:16:04Z</time>
      </trkpt>
      <trkpt lat="59.9663526" lon="17.7102835">
        <ele>29.4575</ele>
        <time>2012-04-16T17:16:13Z</time>
      </trkpt>
      <trkpt lat="59.9661137" lon="17.7094282">
        <ele>28.9769</ele>
        <time>2012-04-16T17:16:21Z</time>
      </trkpt>
      <trkpt lat="59.9657577" lon="17.7084004">
        <ele>29.4575</ele>
        <time>2012-04-16T17:16:31Z</time>
      </trkpt>
      <trkpt lat="59.965617" lon="17.7081649">
        <ele>29.4575</ele>
        <time>2012-04-16T17:16:34Z</time>
      </trkpt>
      <trkpt lat="59.9651171" lon="17.7077081">
        <ele>29.9381</ele>
        <time>2012-04-16T17:16:43Z</time>
      </trkpt>
      <trkpt lat="59.9645697" lon="17.7073238">
        <ele>31.3801</ele>
        <time>2012-04-16T17:16:53Z</time>
      </trkpt>
      <trkpt lat="59.9641122" lon="17.7071577">
        <ele>31.3801</ele>
        <time>2012-04-16T17:17:01Z</time>
      </trkpt>
      <trkpt lat="59.9634624" lon="17.7070839">
        <ele>31.8607</ele>
        <time>2012-04-16T17:17:12Z</time>
      </trkpt>
      <trkpt lat="59.9629071" lon="17.7070912">
        <ele>33.3029</ele>
        <time>2012-04-16T17:17:22Z</time>
      </trkpt>
      <trkpt lat="59.9625002" lon="17.7070128">
        <ele>33.3029</ele>
        <time>2012-04-16T17:17:30Z</time>
      </trkpt>
      <trkpt lat="59.9619924" lon="17.7067569">
        <ele>32.8223</ele>
        <time>2012-04-16T17:17:40Z</time>
      </trkpt>
      <trkpt lat="59.9616825" lon="17.7064943">
        <ele>32.8223</ele>
        <time>2012-04-16T17:17:46Z</time>
      </trkpt>
      <trkpt lat="59.9613495" lon="17.7059824">
        <ele>32.3416</ele>
        <time>2012-04-16T17:17:53Z</time>
      </trkpt>
      <trkpt lat="59.9608864" lon="17.7051842">
        <ele>32.3416</ele>
        <time>2012-04-16T17:18:03Z</time>
      </trkpt>
      <trkpt lat="59.9605431" lon="17.7047374">
        <ele>32.3416</ele>
        <time>2012-04-16T17:18:10Z</time>
      </trkpt>
      <trkpt lat="59.9602214" lon="17.7043715">
        <ele>31.8607</ele>
        <time>2012-04-16T17:18:17Z</time>
      </trkpt>
      <trkpt lat="59.960037" lon="17.7043467">
        <ele>31.3801</ele>
        <time>2012-04-16T17:18:21Z</time>
      </trkpt>
      <trkpt lat="59.9600019" lon="17.704415">
        <ele>31.3801</ele>
        <time>2012-04-16T17:18:22Z</time>
      </trkpt>
      <trkpt lat="59.9597044" lon="17.7051709">
        <ele>29.9381</ele>
        <time>2012-04-16T17:18:32Z</time>
      </trkpt>
      <trkpt lat="59.959678" lon="17.7052495">
        <ele>29.9381</ele>
        <time>2012-04-16T17:18:33Z</time>
      </trkpt>
      <trkpt lat="59.9595846" lon="17.7056706">
        <ele>30.8995</ele>
        <time>2012-04-16T17:18:38Z</time>
      </trkpt>
      <trkpt lat="59.9592953" lon="17.7063814">
        <ele>28.9769</ele>
        <time>2012-04-16T17:18:48Z</time>
      </trkpt>
      <trkpt lat="59.9590928" lon="17.7069423">
        <ele>28.0155</ele>
        <time>2012-04-16T17:18:55Z</time>
      </trkpt>
      <trkpt lat="59.958945" lon="17.7075765">
        <ele>28.0155</ele>
        <time>2012-04-16T17:19:01Z</time>
      </trkpt>
      <trkpt lat="59.9589212" lon="17.7076951">
        <ele>28.4962</ele>
        <time>2012-04-16T17:19:02Z</time>
      </trkpt>
      <trkpt lat="59.9588228" lon="17.7082381">
        <ele>30.4188</ele>
        <time>2012-04-16T17:19:07Z</time>
      </trkpt>
      <trkpt lat="59.9587674" lon="17.7086726">
        <ele>31.3801</ele>
        <time>2012-04-16T17:19:13Z</time>
      </trkpt>
      <trkpt lat="59.958715" lon="17.709121">
        <ele>33.3029</ele>
        <time>2012-04-16T17:19:20Z</time>
      </trkpt>
      <trkpt lat="59.9586587" lon="17.7096825">
        <ele>35.7061</ele>
        <time>2012-04-16T17:19:28Z</time>
      </trkpt>
      <trkpt lat="59.958603" lon="17.7101731">
        <ele>35.7061</ele>
        <time>2012-04-16T17:19:35Z</time>
      </trkpt>
      <trkpt lat="59.9585615" lon="17.7105027">
        <ele>33.7834</ele>
        <time>2012-04-16T17:19:40Z</time>
      </trkpt>
      <trkpt lat="59.9585238" lon="17.7107638">
        <ele>32.3416</ele>
        <time>2012-04-16T17:19:45Z</time>
      </trkpt>
      <trkpt lat="59.9584823" lon="17.711215">
        <ele>32.3416</ele>
        <time>2012-04-16T17:19:52Z</time>
      </trkpt>
      <trkpt lat="59.9584136" lon="17.7118517">
        <ele>30.8995</ele>
        <time>2012-04-16T17:20:01Z</time>
      </trkpt>
      <trkpt lat="59.9583424" lon="17.7124215">
        <ele>30.4188</ele>
        <time>2012-04-16T17:20:08Z</time>
      </trkpt>
      <trkpt lat="59.9582509" lon="17.7132383">
        <ele>32.3416</ele>
        <time>2012-04-16T17:20:17Z</time>
      </trkpt>
      <trkpt lat="59.9582018" lon="17.7136272">
        <ele>35.2255</ele>
        <time>2012-04-16T17:20:23Z</time>
      </trkpt>
      <trkpt lat="59.9581758" lon="17.7138359">
        <ele>37.1481</ele>
        <time>2012-04-16T17:20:27Z</time>
      </trkpt>
      <trkpt lat="59.9582448" lon="17.7139992">
        <ele>40.0321</ele>
        <time>2012-04-16T17:20:32Z</time>
      </trkpt>
      <trkpt lat="59.9582668" lon="17.7140158">
        <ele>40.5128</ele>
        <time>2012-04-16T17:20:33Z</time>
      </trkpt>
      <trkpt lat="59.9584343" lon="17.7141795">
        <ele>43.3966</ele>
        <time>2012-04-16T17:20:41Z</time>
      </trkpt>
      <trkpt lat="59.9585959" lon="17.7143499">
        <ele>46.2806</ele>
        <time>2012-04-16T17:20:49Z</time>
      </trkpt>
      <trkpt lat="59.9587869" lon="17.7145261">
        <ele>47.7225</ele>
        <time>2012-04-16T17:20:57Z</time>
      </trkpt>
      <trkpt lat="59.9590519" lon="17.7147658">
        <ele>49.6453</ele>
        <time>2012-04-16T17:21:06Z</time>
      </trkpt>
      <trkpt lat="59.9592019" lon="17.7149616">
        <ele>50.126</ele>
        <time>2012-04-16T17:21:11Z</time>
      </trkpt>
      <trkpt lat="59.9594326" lon="17.7152838">
        <ele>50.126</ele>
        <time>2012-04-16T17:21:18Z</time>
      </trkpt>
      <trkpt lat="59.9596312" lon="17.7155915">
        <ele>49.6453</ele>
        <time>2012-04-16T17:21:24Z</time>
      </trkpt>
      <trkpt lat="59.9598579" lon="17.7159816">
        <ele>48.684</ele>
        <time>2012-04-16T17:21:31Z</time>
      </trkpt>
      <trkpt lat="59.9600221" lon="17.7162369">
        <ele>48.684</ele>
        <time>2012-04-16T17:21:36Z</time>
      </trkpt>
      <trkpt lat="59.9601062" lon="17.7164154">
        <ele>47.7225</ele>
        <time>2012-04-16T17:21:39Z</time>
      </trkpt>
      <trkpt lat="59.9602142" lon="17.7166659">
        <ele>46.7612</ele>
        <time>2012-04-16T17:21:43Z</time>
      </trkpt>
      <trkpt lat="59.9602918" lon="17.7168559">
        <ele>46.7612</ele>
        <time>2012-04-16T17:21:46Z</time>
      </trkpt>
      <trkpt lat="59.9603443" lon="17.7170623">
        <ele>47.2418</ele>
        <time>2012-04-16T17:21:49Z</time>
      </trkpt>
      <trkpt lat="59.9603871" lon="17.7174938">
        <ele>47.7225</ele>
        <time>2012-04-16T17:21:55Z</time>
      </trkpt>
      <trkpt lat="59.9603549" lon="17.7178213">
        <ele>46.7612</ele>
        <time>2012-04-16T17:22:00Z</time>
      </trkpt>
      <trkpt lat="59.9603534" lon="17.7178818">
        <ele>47.2418</ele>
        <time>2012-04-16T17:22:01Z</time>
      </trkpt>
      <trkpt lat="59.9604496" lon="17.7180485">
        <ele>48.2034</ele>
        <time>2012-04-16T17:22:06Z</time>
      </trkpt>
    </trkseg>
  </trk>
</gpx>